Cosco Melbourne — V7IF5 — position and weather

sailwx.info

Track history (hours):
 
Tides and Currents Weather Stations Pressure Air Temp Water Temp Dewpoint Dewpoint Depression Visibility Wind Speed Wind Dir Waves Ship Positions

Cosco Melbourne

Last reported at 2015-Jun-29 17:33 UTC. Time now 2015-Jul-04 03:23 UTC.
Position N 01°16' E 104°12'.

Type: Ship (hazmat cat A). MMSI: 538002366.

Date/timePositionNaut miles runAvg speedWind from/ knotsBaromVisibWave heightAir tempDewpointWater temp
2015-Jun-29 17:33N 01°16' E 104°12'1515.4
2015-Jun-29 16:33N 01°14' E 103°56'6 5.9
2015-Jun-29 15:31N 01°16' E 103°51'0 0.0
2015-Jun-29 14:33N 01°16' E 103°51'0 0.0
2015-Jun-29 13:33N 01°16' E 103°51'0 0.0
2015-Jun-29 12:29N 01°16' E 103°51'0 0.0
2015-Jun-29 11:32N 01°16' E 103°51'0 0.0
2015-Jun-29 10:31N 01°16' E 103°51'0 0.0
2015-Jun-29 09:31N 01°16' E 103°51'0 0.0
2015-Jun-29 08:31N 01°16' E 103°51'0 0.0
2015-Jun-29 07:30N 01°16' E 103°51'0 0.0
2015-Jun-29 06:33N 01°16' E 103°51'0 0.0
2015-Jun-29 05:29N 01°16' E 103°51'0 0.0
2015-Jun-29 04:29N 01°16' E 103°51'0 0.0
2015-Jun-29 03:28N 01°16' E 103°51'0 0.0
2015-Jun-29 02:31N 01°16' E 103°51'0 0.0
2015-Jun-29 01:28N 01°16' E 103°51'0 0.0
2015-Jun-29 00:33N 01°16' E 103°51'0 0.0
2015-Jun-28 23:33N 01°16' E 103°51'0 0.0
2015-Jun-28 22:32N 01°16' E 103°51'0 0.0
2015-Jun-28 21:26N 01°16' E 103°51'0 0.0
2015-Jun-28 20:31N 01°16' E 103°51'0 0.0
2015-Jun-28 19:31N 01°16' E 103°51'0 0.0
2015-Jun-28 18:31N 01°16' E 103°51'0 0.0
2015-Jun-28 17:33N 01°16' E 103°51'0 0.0
2015-Jun-28 16:30N 01°16' E 103°51'1 0.8
2015-Jun-28 15:33N 01°15' E 103°51'4 4.1
2015-Jun-28 14:31N 01°14' E 103°55'7 7.1
2015-Jun-28 13:32N 01°16' E 104°02'9 7.7
2015-Jun-28 12:22N 01°17' E 104°11'  
2015-Jun-22 19:32N 01°16' E 103°51'0 0.0
2015-Jun-22 18:26N 01°16' E 103°51'0 0.0
2015-Jun-22 17:28N 01°16' E 103°51'0 0.0
2015-Jun-22 16:31N 01°16' E 103°51'0 0.0
2015-Jun-22 15:33N 01°16' E 103°51'0 0.0
2015-Jun-22 14:33N 01°16' E 103°51'0 0.0
2015-Jun-22 13:30N 01°16' E 103°51'0 0.0
2015-Jun-22 12:29N 01°16' E 103°51'0 0.0
2015-Jun-22 11:29N 01°16' E 103°51'0 0.0
2015-Jun-22 10:31N 01°16' E 103°51'0 0.0
2015-Jun-22 09:28N 01°16' E 103°51'0 0.0
2015-Jun-22 08:33N 01°16' E 103°51'0 0.0
2015-Jun-22 07:33N 01°16' E 103°51'0 0.2
2015-Jun-22 06:33N 01°16' E 103°51'7 7.0
2015-Jun-22 05:33N 01°15' E 103°58'  
Track history (hours):
 
Tides and Currents Weather Stations Pressure Air Temp Water Temp Dewpoint Dewpoint Depression Visibility Wind Speed Wind Dir Waves Ship Positions

Cosco Melbourne

Last reported at 2015-Jun-29 17:33 UTC. Time now 2015-Jul-04 03:23 UTC.
Position N 01°16' E 104°12'.

Type: Ship (hazmat cat A). MMSI: 538002366.

Date/timePositionNaut miles runAvg speedWind from/ knotsBaromVisibWave heightAir tempDewpointWater temp
2015-Jun-29 17:33N 01°16' E 104°12'1515.4
2015-Jun-29 16:33N 01°14' E 103°56'6 5.9
2015-Jun-29 15:31N 01°16' E 103°51'0 0.0
2015-Jun-29 14:33N 01°16' E 103°51'0 0.0
2015-Jun-29 13:33N 01°16' E 103°51'0 0.0
2015-Jun-29 12:29N 01°16' E 103°51'0 0.0
2015-Jun-29 11:32N 01°16' E 103°51'0 0.0
2015-Jun-29 10:31N 01°16' E 103°51'0 0.0
2015-Jun-29 09:31N 01°16' E 103°51'0 0.0
2015-Jun-29 08:31N 01°16' E 103°51'0 0.0
2015-Jun-29 07:30N 01°16' E 103°51'0 0.0
2015-Jun-29 06:33N 01°16' E 103°51'0 0.0
2015-Jun-29 05:29N 01°16' E 103°51'0 0.0
2015-Jun-29 04:29N 01°16' E 103°51'0 0.0
2015-Jun-29 03:28N 01°16' E 103°51'0 0.0
2015-Jun-29 02:31N 01°16' E 103°51'0 0.0
2015-Jun-29 01:28N 01°16' E 103°51'0 0.0
2015-Jun-29 00:33N 01°16' E 103°51'0 0.0
2015-Jun-28 23:33N 01°16' E 103°51'0 0.0
2015-Jun-28 22:32N 01°16' E 103°51'0 0.0
2015-Jun-28 21:26N 01°16' E 103°51'0 0.0
2015-Jun-28 20:31N 01°16' E 103°51'0 0.0
2015-Jun-28 19:31N 01°16' E 103°51'0 0.0
2015-Jun-28 18:31N 01°16' E 103°51'0 0.0
2015-Jun-28 17:33N 01°16' E 103°51'0 0.0
2015-Jun-28 16:30N 01°16' E 103°51'1 0.8
2015-Jun-28 15:33N 01°15' E 103°51'4 4.1
2015-Jun-28 14:31N 01°14' E 103°55'7 7.1
2015-Jun-28 13:32N 01°16' E 104°02'9 7.7
2015-Jun-28 12:22N 01°17' E 104°11'  
2015-Jun-22 19:32N 01°16' E 103°51'0 0.0
2015-Jun-22 18:26N 01°16' E 103°51'0 0.0
2015-Jun-22 17:28N 01°16' E 103°51'0 0.0
2015-Jun-22 16:31N 01°16' E 103°51'0 0.0
2015-Jun-22 15:33N 01°16' E 103°51'0 0.0
2015-Jun-22 14:33N 01°16' E 103°51'0 0.0
2015-Jun-22 13:30N 01°16' E 103°51'0 0.0
2015-Jun-22 12:29N 01°16' E 103°51'0 0.0
2015-Jun-22 11:29N 01°16' E 103°51'0 0.0
2015-Jun-22 10:31N 01°16' E 103°51'0 0.0
2015-Jun-22 09:28N 01°16' E 103°51'0 0.0
2015-Jun-22 08:33N 01°16' E 103°51'0 0.0
2015-Jun-22 07:33N 01°16' E 103°51'0 0.2
2015-Jun-22 06:33N 01°16' E 103°51'7 7.0
2015-Jun-22 05:33N 01°15' E 103°58'  

Dump ship's entire track history